Thunder radar more information blitzortung!


avis per Pluja more information rain snow radar


Visita la nostra xarxa de llocs de meteo:

Template documentation
and downloads

And another site



Rain From: 18-10-2018 10:00 Until: 16:59 warning for: Rain Level: Yellow info button

Pagina Historial Weather Underground text

Diari Resum February 28, 2016 Unitats:  Mètric    Imperial   Tant
« Previous Dia
SegĂźent Dia »
Diari Setmana Mensual Anual Personalitzada
  Maxima: Minima: Media:
Temperatura: -17.8 °C -14.9 °C -12.3 °C
Punt de rosada: -17.8 °C -16.7 °C -15.6 °C
Humitat: Humidity % 54 % 67 %
Wind Speed: 0 km/h 0 km/h 9 km/h
RĂ fegues de vent: 0 km/h - -
Vent:- - SSE
Pression baro: 0 hPa 33582.3 hPa -
Precipitacions: 50.8 mm    
Historical Graphs
 
 
Dades de taula per February 28, 2016
Temps Temperatura Punt de rosada Pression baro Vent Wind Speed RĂ fegues de vent Humitat Rainfall Rate (Hourly)
-17.8 °C -17.8 °C 0 hPa Calm     Humidity % 0 mm
00:05 -14.3 °C -16.6 °C 33717.8 hPa NE 7.7 km/h 15.6 km/h 75 % 0 mm
00:15 -14.2 °C -16.6 °C 33717.8 hPa NE 7.7 km/h 15.6 km/h 74 % 0 mm
00:25 -14.2 °C -16.6 °C 33717.8 hPa NE 7.7 km/h 10.3 km/h 74 % 0 mm
00:35 -14.2 °C -16.6 °C 33717.8 hPa NE 5.1 km/h 10.3 km/h 74 % 0 mm
00:45 -14.2 °C -16.6 °C 33717.8 hPa NE 7.7 km/h 10.3 km/h 74 % 0 mm
00:55 -14.2 °C -16.6 °C 33751.6 hPa NE 15.6 km/h 15.6 km/h 74 % 0 mm
01:05 -14.2 °C -16.6 °C 33751.6 hPa NNE 7.7 km/h 15.6 km/h 74 % 0 mm
01:15 -14.2 °C -16.6 °C 33751.6 hPa NNE 7.7 km/h 10.3 km/h 74 % 0 mm
01:25 -14.2 °C -16.6 °C 33751.6 hPa NNE 7.7 km/h 15.6 km/h 74 % 0 mm
01:35 -14.2 °C -16.6 °C 33788.9 hPa NE 7.7 km/h 12.9 km/h 74 % 0 mm
01:45 -14.1 °C -16.5 °C 33788.9 hPa NE 12.9 km/h 15.6 km/h 74 % 0 mm
01:55 -14.1 °C -16.6 °C 33788.9 hPa NE 12.9 km/h 18.2 km/h 73 % 0 mm
02:05 -14 °C -16.5 °C 33788.9 hPa NE 7.7 km/h 20.8 km/h 73 % 0 mm
02:15 -14 °C -16.5 °C 33788.9 hPa NE 7.7 km/h 20.8 km/h 73 % 0 mm
02:25 -14.1 °C -16.6 °C 33751.6 hPa NE 12.9 km/h 12.9 km/h 73 % 0 mm
02:35 -14.1 °C -16.6 °C 33822.8 hPa NE 12.9 km/h 15.6 km/h 73 % 0 mm
02:45 -14.1 °C -16.7 °C 33822.8 hPa NE 7.7 km/h 15.6 km/h 72 % 0 mm
02:55 -14 °C -16.6 °C 33822.8 hPa NE 12.9 km/h 15.6 km/h 72 % 0 mm
03:05 -14 °C -16.6 °C 33822.8 hPa NE 15.6 km/h 15.6 km/h 72 % 0 mm
03:15 -13.6 °C -16.3 °C 33822.8 hPa NE 15.6 km/h 20.8 km/h 71 % 0 mm
03:25 -13.3 °C -16.1 °C 33856.6 hPa NNE 12.9 km/h 20.8 km/h 71 % 0 mm
03:35 -12.9 °C -15.8 °C 33856.6 hPa NNE 5.1 km/h 15.6 km/h 70 % 0 mm
03:45 -12.8 °C -15.8 °C 33856.6 hPa NNE 12.9 km/h 12.9 km/h 69 % 0 mm
03:55 -12.7 °C -15.8 °C 33856.6 hPa NE 7.7 km/h 15.6 km/h 68 % 0 mm
04:05 -12.5 °C -15.6 °C 33822.8 hPa NNE 12.9 km/h 15.6 km/h 68 % 0 mm
04:15 -12.2 °C -15.4 °C 33822.8 hPa NNE 5.1 km/h 10.3 km/h 68 % 0 mm
04:25 -12.2 °C -15.4 °C 33856.6 hPa NNE 12.9 km/h 18.2 km/h 67 % 0 mm
04:35 -12.3 °C -15.7 °C 33856.6 hPa NNE 7.7 km/h 12.9 km/h 66 % 0 mm
04:45 -11.9 °C -15.4 °C 33856.6 hPa NNE 12.9 km/h 18.2 km/h 65 % 0 mm
04:55 -11.7 °C -15.2 °C 33822.8 hPa NNE 7.7 km/h 15.6 km/h 65 % 0 mm
06:55 -11.3 °C -15.7 °C 33822.8 hPa ENE 7.7 km/h 15.6 km/h 59 % 0 mm
10:54 -14.9 °C -16.3 °C 33582.3 hPa North 9 km/h   84 % 76.2 mm
10:59 -11.6 °C -15.4 °C 33856.6 hPa NE 16.6 km/h 16.6 km/h 63 % 0 mm
11:04 -11.6 °C -15.2 °C 33856.6 hPa ESE 15.6 km/h 15.6 km/h 64 % 0 mm
11:14 -11.5 °C -15.3 °C 33856.6 hPa ENE 15 km/h 15 km/h 63 % 0 mm
11:19 -11.6 °C -15.3 °C 33856.6 hPa NNE 19.2 km/h 19.2 km/h 63 % 0 mm
11:24 -11.6 °C -15.5 °C 33856.6 hPa NNE 11.9 km/h 11.9 km/h 62 % 0 mm
11:29 -11.5 °C -15.5 °C 33856.6 hPa NE 15 km/h 15 km/h 61 % 0 mm
11:34 -11.4 °C -15.3 °C 33856.6 hPa NE 17.9 km/h 17.9 km/h 62 % 0 mm
11:39 -11.3 °C -15.3 °C 33856.6 hPa NE 15 km/h 15 km/h 61 % 0 mm
11:44 -11.4 °C -15.6 °C 33856.6 hPa East 15 km/h 15.3 km/h 60 % 0 mm
11:49 -11.6 °C -15.9 °C 33856.6 hPa NNE 20.9 km/h 20.9 km/h 59 % 0 mm
11:54 -11.7 °C -15.9 °C 33856.6 hPa NNE 17.9 km/h 17.9 km/h 59 % 0 mm
11:59 -11.7 °C -15.8 °C 33890.5 hPa ENE 15 km/h 15 km/h 60 % 0 mm
12:04 -11.6 °C -15.8 °C 33890.5 hPa NNE 15.3 km/h 15.3 km/h 60 % 0 mm
12:09 -11.7 °C -15.8 °C 33890.5 hPa ENE 11.9 km/h 11.9 km/h 60 % 0 mm
12:14 -11.7 °C -15.9 °C 33890.5 hPa NNE 20.9 km/h 20.9 km/h 59 % 0 mm
12:19 -11.7 °C -15.9 °C 33890.5 hPa ENE 15 km/h 15 km/h 59 % 0 mm
12:24 -11.8 °C -16.1 °C 33890.5 hPa NE 15 km/h 15 km/h 59 % 0 mm
12:29 -11.7 °C -15.9 °C 33890.5 hPa ENE 17.9 km/h 17.9 km/h 60 % 0 mm
12:34 -11.4 °C -15.6 °C 33890.5 hPa NNE 15 km/h 15 km/h 60 % 0 mm
12:39 -11.4 °C -15.7 °C 33890.5 hPa NNE 11.9 km/h 14.5 km/h 59 % 0 mm
12:44 -11.3 °C -15.8 °C 33890.5 hPa North 17.9 km/h 17.9 km/h 58 % 0 mm
12:49 -11.3 °C -15.7 °C 33890.5 hPa ESE 15 km/h 15 km/h 59 % 0 mm
12:59 -11.3 °C -15.6 °C 33890.5 hPa NE 14.5 km/h 14.5 km/h 59 % 0 mm
13:04 -11.3 °C -15.6 °C 33890.5 hPa ESE 11.9 km/h 11.9 km/h 59 % 0 mm
13:10 -11.3 °C -15.6 °C 33890.5 hPa SE 11.9 km/h 11.9 km/h 59 % 0 mm
13:15 -11.3 °C -15.6 °C 33890.5 hPa ENE 11.1 km/h 11.1 km/h 59 % 0 mm
13:20 -11.3 °C -15.6 °C 33890.5 hPa ENE 15 km/h 15 km/h 59 % 0 mm
13:25 -11.1 °C -15.4 °C 33890.5 hPa East 15 km/h 15 km/h 59 % 0 mm
13:35 -11 °C -15.4 °C 33890.5 hPa ESE 9 km/h 9 km/h 58 % 0 mm
13:40 -11.1 °C -15.5 °C 33890.5 hPa ENE 9 km/h 9 km/h 58 % 0 mm
13:45 -10.9 °C -15.4 °C 33890.5 hPa East 10.3 km/h 10.3 km/h 58 % 0 mm
13:50 -10.9 °C -15.4 °C 33890.5 hPa NE 11.9 km/h 11.9 km/h 58 % 0 mm
13:55 -10.9 °C -15.4 °C 33890.5 hPa ENE 17.9 km/h 17.9 km/h 58 % 0 mm
14:00 -10.9 °C -15.4 °C 33890.5 hPa ESE 12.7 km/h 12.7 km/h 58 % 0 mm
14:10 -11.1 °C -15.5 °C 33890.5 hPa ESE 20.9 km/h 20.9 km/h 58 % 0 mm
14:15 -10.9 °C -15.4 °C 33890.5 hPa SSE 15.6 km/h 15.6 km/h 58 % 0 mm
14:20 -10.7 °C -15.2 °C 33890.5 hPa ESE 17.9 km/h 17.9 km/h 58 % 0 mm
14:25 -10.6 °C -15.2 °C 33890.5 hPa ENE 15 km/h 15 km/h 57 % 0 mm
14:30 -10.7 °C -15.3 °C 33856.6 hPa SE 7.6 km/h 7.6 km/h 57 % 0 mm
14:35 -10.6 °C -15.2 °C 33856.6 hPa South 6 km/h 6 km/h 57 % 0 mm
14:40 -10.6 °C -15.1 °C 33856.6 hPa SW 3.1 km/h 3.7 km/h 58 % 0 mm
14:45 -10.6 °C -15.3 °C 33890.5 hPa South 9 km/h 9 km/h 56 % 0 mm
14:50 -10.6 °C -15.2 °C 33890.5 hPa ESE 8.5 km/h 8.5 km/h 57 % 0 mm
14:55 -10.5 °C -15.3 °C 33890.5 hPa SE 6.3 km/h 6.8 km/h 56 % 0 mm
15:00 -10.4 °C -15.2 °C 33890.5 hPa ESE 6 km/h 6 km/h 56 % 0 mm
15:05 -10.3 °C -15.1 °C 33890.5 hPa ESE 7.6 km/h 7.6 km/h 56 % 0 mm
15:10 -10.3 °C -15.2 °C 33890.5 hPa SE 6 km/h 6 km/h 55 % 0 mm
15:15 -10.4 °C -15.4 °C 33856.6 hPa East 8 km/h 8 km/h 54 % 0 mm
15:20 -10.4 °C -15.4 °C 33856.6 hPa ESE 10.3 km/h 11.1 km/h 55 % 0 mm
15:25 -10.6 °C -15.4 °C 33856.6 hPa South 9 km/h 9 km/h 55 % 0 mm
15:30 -10.5 °C -15.6 °C 33890.5 hPa SSW 9 km/h 9 km/h 54 % 0 mm
15:35 -10.4 °C -15.4 °C 33890.5 hPa South 10.3 km/h 10.3 km/h 55 % 0 mm
15:40 -10.5 °C -15.6 °C 33890.5 hPa East 11.9 km/h 11.9 km/h 54 % 0 mm
15:45 -10.6 °C -15.6 °C 33890.5 hPa South 6 km/h   54 % 0 mm
15:50 -10.5 °C -15.4 °C 33890.5 hPa South 6 km/h 6 km/h 55 % 0 mm
15:55 -10.5 °C -15.6 °C 33890.5 hPa SE 3.7 km/h 5.1 km/h 54 % 0 mm
16:00 -10.5 °C -15.4 °C 33890.5 hPa WSW 6 km/h 6 km/h 55 % 0 mm
16:05 -10.6 °C -15.4 °C 33890.5 hPa WSW 9 km/h 9 km/h 55 % 0 mm
16:10 -10.6 °C -15.5 °C 33890.5 hPa SW 6 km/h 6.3 km/h 55 % 0 mm
16:15 -10.7 °C -15.6 °C 33924.3 hPa SW 6.3 km/h 6.3 km/h 55 % 0 mm
16:20 -10.7 °C -15.6 °C 33924.3 hPa SSW 6 km/h 6 km/h 55 % 0 mm
16:25 -10.7 °C -15.6 °C 33924.3 hPa SW 6 km/h 6 km/h 55 % 0 mm
16:30 -10.7 °C -15.6 °C 33924.3 hPa SW 6.3 km/h 6.3 km/h 55 % 0 mm
16:35 -10.8 °C -15.7 °C 33924.3 hPa SW 6 km/h 6 km/h 55 % 0 mm
16:40 -10.8 °C -15.7 °C 33924.3 hPa WSW 3.1 km/h 3.1 km/h 55 % 0 mm
16:45 -10.8 °C -15.7 °C 33924.3 hPa SW 3.7 km/h 4.2 km/h 55 % 0 mm
16:50 -10.8 °C -15.6 °C 33924.3 hPa SW 6 km/h 6 km/h 56 % 0 mm
16:55 -10.9 °C -15.5 °C 33924.3 hPa SW 2.3 km/h   57 % 0 mm
17:00 -10.9 °C -15.4 °C 33924.3 hPa SW 3.1 km/h 3.1 km/h 58 % 0 mm
17:05 -10.9 °C -15.3 °C 33924.3 hPa Calm     59 % 0 mm
17:10 -11 °C -15.2 °C 33924.3 hPa Calm     60 % 0 mm
17:15 -11.1 °C -15.2 °C 33890.5 hPa Calm     60 % 0 mm
17:20 -11.2 °C -15.3 °C 33890.5 hPa South 6 km/h 6 km/h 60 % 0 mm
17:25 -11.3 °C -15.2 °C 33890.5 hPa Calm     62 % 0 mm
17:30 -11.3 °C -15.2 °C 33890.5 hPa Calm     62 % 0 mm
17:35 -11.4 °C -15.1 °C 33890.5 hPa South 4.2 km/h 4.2 km/h 64 % 0 mm
17:40 -11.4 °C -15.1 °C 33890.5 hPa Calm     64 % 0 mm
17:45 -11.5 °C -15.2 °C 33890.5 hPa SW 6 km/h 6 km/h 64 % 0 mm
17:50 -11.6 °C -15.2 °C 33890.5 hPa SSW 5.1 km/h 5.1 km/h 64 % 0 mm
17:55 -11.6 °C -15.1 °C 33890.5 hPa WSW 6 km/h 6 km/h 65 % 0 mm
18:00 -11.7 °C -15.1 °C 33924.3 hPa WSW 6.3 km/h 6.3 km/h 66 % 0 mm
18:05 -11.8 °C -15.2 °C 33924.3 hPa WSW 9 km/h 9 km/h 66 % 0 mm
18:10 -11.9 °C -15.2 °C 33924.3 hPa SW 9.8 km/h 9.8 km/h 67 % 0 mm
18:15 -11.9 °C -15.1 °C 33924.3 hPa WSW 15 km/h 15 km/h 68 % 0 mm
18:20 -12.1 °C -15.1 °C 33924.3 hPa West 6 km/h 6 km/h 69 % 0 mm
18:25 -12.1 °C -15.1 °C 33924.3 hPa West 6.3 km/h 6.8 km/h 69 % 0 mm
18:30 -12.1 °C -15.1 °C 33958.2 hPa WSW 9 km/h 9 km/h 69 % 0 mm
18:35 -12.2 °C -15.2 °C 33958.2 hPa WSW 9 km/h 9 km/h 69 % 0 mm
18:40 -12.4 °C -15.4 °C 33958.2 hPa WSW 3.1 km/h 3.1 km/h 69 % 0 mm
18:45 -12.5 °C -15.3 °C 33958.2 hPa WSW 2.3 km/h   71 % 0 mm
18:50 -12.7 °C -15.5 °C 33958.2 hPa WSW 9 km/h 9 km/h 71 % 0 mm
18:55 -12.8 °C -15.3 °C 33958.2 hPa WSW 6.3 km/h 6.3 km/h 73 % 25.4 mm
19:00 -12.8 °C -15.2 °C 33958.2 hPa WNW 2.3 km/h 2.3 km/h 75 % 25.4 mm
19:05 -12.9 °C -15.2 °C 33958.2 hPa Calm     75 % 25.4 mm
19:10 -12.9 °C -15.3 °C 33958.2 hPa West 3.1 km/h 3.1 km/h 75 % 25.4 mm
19:15 -12.9 °C -15.3 °C 33958.2 hPa WSW 6 km/h 6 km/h 75 % 25.4 mm
19:20 -13.1 °C -15.4 °C 33958.2 hPa WSW 3.1 km/h   75 % 25.4 mm
19:25 -13.1 °C -15.5 °C 33958.2 hPa WSW 5.1 km/h 5.1 km/h 74 % 25.4 mm
19:30 -13.1 °C -15.4 °C 33992.1 hPa SSW 6 km/h 6 km/h 75 % 25.4 mm
19:35 -13.2 °C -15.4 °C 33992.1 hPa WSW 3.1 km/h   76 % 25.4 mm
19:40 -13.2 °C -15.3 °C 33992.1 hPa Calm     77 % 25.4 mm
19:45 -13.2 °C -15.2 °C 33992.1 hPa Calm     78 % 25.4 mm
19:50 -13.2 °C -15.2 °C 33992.1 hPa ESE 3.1 km/h   78 % 25.4 mm
19:55 -13.2 °C -15.2 °C 33992.1 hPa NW 6 km/h 6 km/h 78 % 0 mm
20:00 -13.2 °C -15.2 °C 33992.1 hPa Calm     78 % 0 mm
20:05 -13.2 °C -15.2 °C 33992.1 hPa NE 3.1 km/h   78 % 0 mm
20:10 -13.2 °C -15.3 °C 33992.1 hPa WSW 6 km/h 6 km/h 77 % 0 mm
20:15 -13.3 °C -15.3 °C 33992.1 hPa SW 11.9 km/h 11.9 km/h 78 % 0 mm
20:20 -13.3 °C -15.2 °C 33992.1 hPa SSW 15 km/h 15 km/h 79 % 0 mm
20:25 -13.4 °C -15 °C 33992.1 hPa WSW 15 km/h 15 km/h 82 % 0 mm
20:30 -13.4 °C -15 °C 33924.3 hPa SW 15 km/h 15 km/h 82 % 0 mm
20:35 -13.3 °C -14.8 °C 33924.3 hPa WSW 11.9 km/h 11.9 km/h 83 % 0 mm
20:40 -13.3 °C -14.8 °C 33924.3 hPa SW 11.9 km/h 11.9 km/h 83 % 0 mm
20:45 -13.3 °C -14.8 °C 33958.2 hPa West 6 km/h 6 km/h 83 % 0 mm
20:50 -13.3 °C -14.9 °C 33958.2 hPa West 6 km/h 6 km/h 82 % 0 mm
20:55 -13.3 °C -14.9 °C 33958.2 hPa West 8 km/h 8 km/h 82 % 0 mm
21:00 -13.3 °C -14.9 °C 33958.2 hPa WSW 15 km/h 15 km/h 82 % 0 mm
21:05 -13.3 °C -14.9 °C 33958.2 hPa WSW 9 km/h 9 km/h 82 % 0 mm
21:10 -13.4 °C -15.2 °C 33958.2 hPa WSW 9 km/h 9 km/h 81 % 0 mm
21:15 -13.5 °C -15.2 °C 33958.2 hPa West 9 km/h   81 % 0 mm
21:20 -13.6 °C -15.2 °C 33958.2 hPa WSW 6.3 km/h 6.3 km/h 81 % 0 mm
21:25 -13.6 °C -15.3 °C 33958.2 hPa WSW 9 km/h 9 km/h 81 % 0 mm
21:30 -13.7 °C -15.4 °C 33958.2 hPa WSW 9 km/h 9 km/h 81 % 0 mm
21:35 -13.7 °C -15.4 °C 33958.2 hPa WSW 11.9 km/h 11.9 km/h 81 % 0 mm
21:40 -13.7 °C -15.5 °C 33958.2 hPa WSW 6 km/h 6 km/h 80 % 0 mm
21:50 -13.8 °C -15.6 °C 33958.2 hPa SSW 11.9 km/h 11.9 km/h 80 % 0 mm
21:55 -13.9 °C -15.7 °C 33958.2 hPa SW 6.3 km/h 6.3 km/h 80 % 0 mm
22:10 -14.1 °C -15.9 °C 33958.2 hPa WSW 9 km/h 9 km/h 80 % 0 mm
22:15 -14.2 °C -15.9 °C 33958.2 hPa SW 6.3 km/h 6.3 km/h 80 % 0 mm
22:20 -14.2 °C -15.9 °C 33958.2 hPa WSW 7.6 km/h 7.6 km/h 80 % 0 mm
22:25 -14.2 °C -15.9 °C 33958.2 hPa SW 9 km/h 9 km/h 80 % 0 mm
22:30 -14.2 °C -15.9 °C 33924.3 hPa WSW 9 km/h 9 km/h 80 % 0 mm
22:35 -14.2 °C -15.9 °C 33924.3 hPa WSW 6.3 km/h 6.8 km/h 80 % 0 mm
22:40 -14.4 °C -16.1 °C 33924.3 hPa SW 6 km/h 6 km/h 81 % 0 mm
22:45 -14.4 °C -16.1 °C 33992.1 hPa SW 6 km/h 6 km/h 81 % 0 mm
22:50 -14.4 °C -16.1 °C 33992.1 hPa WSW 6 km/h 6 km/h 81 % 0 mm
22:55 -14.4 °C -16.1 °C 33992.1 hPa WSW 9 km/h 9 km/h 81 % 0 mm
23:00 -14.4 °C -16.1 °C 33992.1 hPa WSW 9 km/h 9 km/h 81 % 0 mm
Meteo Sesrovires
Elogis d' Weather Underground - 1.5 mb

Guio original per  Jim McMurry - jmcmurry@mwt.net Adaptat per a la plantilla per  Wim van der Kuil - Leuven-Template.eu

Trobareu la nostra informacio del temps tambe a:

Weather Underground

AWEKAS